sensor_id;sensor_type;location;lat;lon;timestamp;pressure;altitude;pressure_sealevel;temperature;humidity
3968;BME280;9221;42.646;23.380;2023-04-27T00:01:14;94206.88;;;9.34;56.86
3968;BME280;9221;42.646;23.380;2023-04-27T00:03:40;94194.69;;;9.33;56.58
3968;BME280;9221;42.646;23.380;2023-04-27T00:06:07;94099.25;;;8.78;56.57
3968;BME280;9221;42.646;23.380;2023-04-27T00:08:33;94111.50;;;8.88;56.51
3968;BME280;9221;42.646;23.380;2023-04-27T00:10:59;94136.44;;;8.84;56.32
3968;BME280;9221;42.646;23.380;2023-04-27T00:13:24;94142.34;;;8.86;56.77
3968;BME280;9221;42.646;23.380;2023-04-27T00:15:51;94209.00;;;9.30;56.79
3968;BME280;9221;42.646;23.380;2023-04-27T00:18:16;94216.81;;;9.04;56.77
3968;BME280;9221;42.646;23.380;2023-04-27T00:20:42;94156.25;;;8.96;57.16
3968;BME280;9221;42.646;23.380;2023-04-27T00:23:07;94200.16;;;9.13;56.54
3968;BME280;9221;42.646;23.380;2023-04-27T00:25:32;94214.03;;;9.24;56.95
3968;BME280;9221;42.646;23.380;2023-04-27T00:27:58;94139.00;;;8.57;56.86
3968;BME280;9221;42.646;23.380;2023-04-27T00:30:23;94243.13;;;9.04;57.06
3968;BME280;9221;42.646;23.380;2023-04-27T00:32:49;94232.75;;;9.03;57.15
3968;BME280;9221;42.646;23.380;2023-04-27T00:35:14;94213.53;;;9.02;57.11
3968;BME280;9221;42.646;23.380;2023-04-27T00:37:39;94196.28;;;8.90;56.92
3968;BME280;9221;42.646;23.380;2023-04-27T00:40:06;94207.72;;;8.98;57.33
3968;BME280;9221;42.646;23.380;2023-04-27T00:42:32;94116.66;;;8.43;56.44
3968;BME280;9221;42.646;23.380;2023-04-27T00:44:58;94219.06;;;8.99;57.23
3968;BME280;9221;42.646;23.380;2023-04-27T00:47:24;94213.53;;;9.02;57.16
3968;BME280;9221;42.646;23.380;2023-04-27T00:49:49;94214.41;;;8.93;57.21
3968;BME280;9221;42.646;23.380;2023-04-27T00:52:15;94209.09;;;8.85;57.00
3968;BME280;9221;42.646;23.380;2023-04-27T00:54:41;94228.00;;;8.88;57.24
3968;BME280;9221;42.646;23.380;2023-04-27T00:57:07;94191.94;;;8.62;57.29
3968;BME280;9221;42.646;23.380;2023-04-27T00:59:33;94108.94;;;8.14;57.22
3968;BME280;9221;42.646;23.380;2023-04-27T01:01:59;94184.03;;;8.35;57.22
3968;BME280;9221;42.646;23.380;2023-04-27T01:04:25;94234.03;;;8.80;57.51
3968;BME280;9221;42.646;23.380;2023-04-27T01:06:51;94224.78;;;8.76;57.42
3968;BME280;9221;42.646;23.380;2023-04-27T01:09:16;94220.50;;;8.75;57.26
3968;BME280;9221;42.646;23.380;2023-04-27T01:11:44;94201.91;;;8.59;57.17
3968;BME280;9221;42.646;23.380;2023-04-27T01:14:09;94273.72;;;8.77;57.47
3968;BME280;9221;42.646;23.380;2023-04-27T01:16:35;94235.47;;;8.37;57.58
3968;BME280;9221;42.646;23.380;2023-04-27T01:19:01;94235.75;;;8.34;58.06
3968;BME280;9221;42.646;23.380;2023-04-27T01:21:26;94233.44;;;8.59;57.57
3968;BME280;9221;42.646;23.380;2023-04-27T01:23:52;94240.81;;;8.73;57.67
3968;BME280;9221;42.646;23.380;2023-04-27T01:26:18;94131.72;;;7.95;57.18
3968;BME280;9221;42.646;23.380;2023-04-27T01:28:43;94247.25;;;8.61;58.28
3968;BME280;9221;42.646;23.380;2023-04-27T01:31:10;94252.88;;;8.48;57.98
3968;BME280;9221;42.646;23.380;2023-04-27T01:33:36;94221.63;;;8.45;57.99
3968;BME280;9221;42.646;23.380;2023-04-27T01:36:02;94257.63;;;8.25;58.44
3968;BME280;9221;42.646;23.380;2023-04-27T01:38:27;94182.97;;;8.00;58.45
3968;BME280;9221;42.646;23.380;2023-04-27T01:40:53;94220.47;;;8.20;58.10
3968;BME280;9221;42.646;23.380;2023-04-27T01:43:20;94166.06;;;7.74;58.51
3968;BME280;9221;42.646;23.380;2023-04-27T01:45:45;94310.97;;;8.35;58.01
3968;BME280;9221;42.646;23.380;2023-04-27T01:48:10;94243.19;;;8.39;58.22
3968;BME280;9221;42.646;23.380;2023-04-27T01:50:36;94254.53;;;8.49;58.20
3968;BME280;9221;42.646;23.380;2023-04-27T01:53:01;94247.34;;;8.41;57.95
3968;BME280;9221;42.646;23.380;2023-04-27T01:55:27;94272.94;;;8.39;58.34
3968;BME280;9221;42.646;23.380;2023-04-27T01:57:53;94189.47;;;7.95;57.89
3968;BME280;9221;42.646;23.380;2023-04-27T02:00:18;94197.22;;;7.97;58.11
3968;BME280;9221;42.646;23.380;2023-04-27T02:02:44;94232.06;;;8.27;58.34
3968;BME280;9221;42.646;23.380;2023-04-27T02:05:09;94163.25;;;7.86;57.80
3968;BME280;9221;42.646;23.380;2023-04-27T02:07:35;94204.78;;;8.00;57.78
3968;BME280;9221;42.646;23.380;2023-04-27T02:10:01;94202.47;;;7.97;57.70
3968;BME280;9221;42.646;23.380;2023-04-27T02:12:26;94257.41;;;8.08;57.71
3968;BME280;9221;42.646;23.380;2023-04-27T02:14:51;94251.81;;;8.31;58.26
3968;BME280;9221;42.646;23.380;2023-04-27T02:17:17;94288.88;;;8.28;57.68
3968;BME280;9221;42.646;23.380;2023-04-27T02:19:42;94192.00;;;7.77;58.42
3968;BME280;9221;42.646;23.380;2023-04-27T02:22:07;94253.66;;;8.21;58.11
3968;BME280;9221;42.646;23.380;2023-04-27T02:24:34;94266.22;;;8.27;57.97
3968;BME280;9221;42.646;23.380;2023-04-27T02:27:00;94238.34;;;8.06;57.79
3968;BME280;9221;42.646;23.380;2023-04-27T02:29:29;94258.50;;;8.16;58.42
3968;BME280;9221;42.646;23.380;2023-04-27T02:31:54;94275.63;;;8.20;57.86
3968;BME280;9221;42.646;23.380;2023-04-27T02:34:20;94227.25;;;7.75;57.46
3968;BME280;9221;42.646;23.380;2023-04-27T02:36:45;94302.84;;;8.19;58.22
3968;BME280;9221;42.646;23.380;2023-04-27T02:39:11;94198.91;;;7.78;57.64
3968;BME280;9221;42.646;23.380;2023-04-27T02:41:36;94211.63;;;7.73;58.00
3968;BME280;9221;42.646;23.380;2023-04-27T02:44:02;94197.97;;;7.79;57.42
3968;BME280;9221;42.646;23.380;2023-04-27T02:46:27;94242.50;;;7.99;57.38
3968;BME280;9221;42.646;23.380;2023-04-27T02:48:53;94263.22;;;8.02;57.77
3968;BME280;9221;42.646;23.380;2023-04-27T02:51:19;94203.94;;;7.62;57.99
3968;BME280;9221;42.646;23.380;2023-04-27T02:53:44;94299.72;;;8.05;57.70
3968;BME280;9221;42.646;23.380;2023-04-27T02:56:10;94198.41;;;7.65;57.99
3968;BME280;9221;42.646;23.380;2023-04-27T02:58:35;94200.88;;;7.67;57.53
3968;BME280;9221;42.646;23.380;2023-04-27T03:01:01;94262.56;;;8.00;58.08
3968;BME280;9221;42.646;23.380;2023-04-27T03:03:26;94295.03;;;7.99;58.58
3968;BME280;9221;42.646;23.380;2023-04-27T03:05:52;94197.59;;;7.65;57.37
3968;BME280;9221;42.646;23.380;2023-04-27T03:08:17;94202.38;;;7.69;57.37
3968;BME280;9221;42.646;23.380;2023-04-27T03:10:42;94205.88;;;7.70;57.37
3968;BME280;9221;42.646;23.380;2023-04-27T03:13:08;94260.38;;;7.86;57.24
3968;BME280;9221;42.646;23.380;2023-04-27T03:15:33;94282.88;;;7.98;57.88
3968;BME280;9221;42.646;23.380;2023-04-27T03:17:59;94231.28;;;7.59;57.70
3968;BME280;9221;42.646;23.380;2023-04-27T03:20:24;94289.50;;;8.02;57.45
3968;BME280;9221;42.646;23.380;2023-04-27T03:22:50;94239.84;;;7.71;57.60
3968;BME280;9221;42.646;23.380;2023-04-27T03:25:15;94332.38;;;7.93;57.18
3968;BME280;9221;42.646;23.380;2023-04-27T03:27:41;94219.84;;;7.31;57.60
3968;BME280;9221;42.646;23.380;2023-04-27T03:30:08;94307.50;;;7.97;57.24
3968;BME280;9221;42.646;23.380;2023-04-27T03:32:33;94188.38;;;7.31;57.45
3968;BME280;9221;42.646;23.380;2023-04-27T03:34:59;94269.94;;;7.77;57.15
3968;BME280;9221;42.646;23.380;2023-04-27T03:37:24;94310.66;;;7.91;57.78
3968;BME280;9221;42.646;23.380;2023-04-27T03:39:49;94237.38;;;7.60;57.44
3968;BME280;9221;42.646;23.380;2023-04-27T03:42:15;94236.38;;;7.61;57.52
3968;BME280;9221;42.646;23.380;2023-04-27T03:44:40;94273.66;;;7.74;57.33
3968;BME280;9221;42.646;23.380;2023-04-27T03:47:06;94299.50;;;7.69;57.48
3968;BME280;9221;42.646;23.380;2023-04-27T03:49:36;94301.69;;;7.84;57.64
3968;BME280;9221;42.646;23.380;2023-04-27T03:52:01;94307.38;;;7.89;57.84
3968;BME280;9221;42.646;23.380;2023-04-27T03:54:28;94255.06;;;7.38;57.41
3968;BME280;9221;42.646;23.380;2023-04-27T03:56:54;94298.94;;;7.75;57.30
3968;BME280;9221;42.646;23.380;2023-04-27T03:59:20;94259.75;;;7.44;57.02
3968;BME280;9221;42.646;23.380;2023-04-27T04:01:45;94250.66;;;7.39;57.39
3968;BME280;9221;42.646;23.380;2023-04-27T04:04:10;94285.16;;;7.63;57.87
3968;BME280;9221;42.646;23.380;2023-04-27T04:06:36;94303.09;;;7.58;57.14
3968;BME280;9221;42.646;23.380;2023-04-27T04:09:01;94329.63;;;7.85;57.06
3968;BME280;9221;42.646;23.380;2023-04-27T04:11:27;94384.88;;;7.73;57.21
3968;BME280;9221;42.646;23.380;2023-04-27T04:13:53;94355.84;;;7.65;57.33
3968;BME280;9221;42.646;23.380;2023-04-27T04:16:18;94377.97;;;7.72;57.38
3968;BME280;9221;42.646;23.380;2023-04-27T04:18:44;94349.63;;;7.86;57.19
3968;BME280;9221;42.646;23.380;2023-04-27T04:21:09;94360.53;;;7.91;57.43
3968;BME280;9221;42.646;23.380;2023-04-27T04:23:35;94354.09;;;7.66;57.18
3968;BME280;9221;42.646;23.380;2023-04-27T04:26:01;94272.31;;;7.31;57.01
3968;BME280;9221;42.646;23.380;2023-04-27T04:28:27;94344.38;;;7.86;56.65
3968;BME280;9221;42.646;23.380;2023-04-27T04:30:52;94373.00;;;7.89;56.60
3968;BME280;9221;42.646;23.380;2023-04-27T04:33:17;94332.94;;;7.67;56.42
3968;BME280;9221;42.646;23.380;2023-04-27T04:35:43;94323.53;;;7.84;56.25
3968;BME280;9221;42.646;23.380;2023-04-27T04:38:09;94347.78;;;8.16;56.32
3968;BME280;9221;42.646;23.380;2023-04-27T04:40:34;94243.72;;;7.57;56.26
3968;BME280;9221;42.646;23.380;2023-04-27T04:43:02;94360.63;;;8.28;55.85
3968;BME280;9221;42.646;23.380;2023-04-27T04:45:27;94394.78;;;8.19;55.82
3968;BME280;9221;42.646;23.380;2023-04-27T04:47:53;94243.84;;;7.56;55.71
3968;BME280;9221;42.646;23.380;2023-04-27T04:50:18;94377.94;;;8.11;55.90
3968;BME280;9221;42.646;23.380;2023-04-27T04:52:44;94309.97;;;7.99;55.48
3968;BME280;9221;42.646;23.380;2023-04-27T04:55:09;94380.94;;;8.46;55.62
3968;BME280;9221;42.646;23.380;2023-04-27T04:57:35;94403.59;;;8.57;55.33
3968;BME280;9221;42.646;23.380;2023-04-27T05:00:00;94318.22;;;8.13;55.17
3968;BME280;9221;42.646;23.380;2023-04-27T05:02:26;94352.03;;;8.36;54.83
3968;BME280;9221;42.646;23.380;2023-04-27T05:04:51;94398.06;;;8.60;54.76
3968;BME280;9221;42.646;23.380;2023-04-27T05:07:17;94392.94;;;8.68;54.51
3968;BME280;9221;42.646;23.380;2023-04-27T05:09:42;94430.97;;;8.64;54.19
3968;BME280;9221;42.646;23.380;2023-04-27T05:12:08;94400.22;;;8.74;54.39
3968;BME280;9221;42.646;23.380;2023-04-27T05:14:34;94420.69;;;8.80;53.82
3968;BME280;9221;42.646;23.380;2023-04-27T05:16:59;94431.66;;;8.66;53.49
3968;BME280;9221;42.646;23.380;2023-04-27T05:19:27;94338.09;;;8.26;54.19
3968;BME280;9221;42.646;23.380;2023-04-27T05:21:53;94346.94;;;8.25;54.07
3968;BME280;9221;42.646;23.380;2023-04-27T05:24:18;94393.38;;;8.44;54.14
3968;BME280;9221;42.646;23.380;2023-04-27T05:26:44;94424.91;;;8.54;54.42
3968;BME280;9221;42.646;23.380;2023-04-27T05:29:09;94394.53;;;8.22;53.88
3968;BME280;9221;42.646;23.380;2023-04-27T05:31:35;94337.03;;;7.99;54.48
3968;BME280;9221;42.646;23.380;2023-04-27T05:34:00;94260.59;;;7.55;54.45
3968;BME280;9221;42.646;23.380;2023-04-27T05:36:26;94332.34;;;8.03;54.69
3968;BME280;9221;42.646;23.380;2023-04-27T05:38:53;94410.25;;;8.51;54.42
3968;BME280;9221;42.646;23.380;2023-04-27T05:41:18;94483.00;;;8.31;54.75
3968;BME280;9221;42.646;23.380;2023-04-27T05:43:43;94397.41;;;8.19;54.72
3968;BME280;9221;42.646;23.380;2023-04-27T05:46:12;94422.28;;;8.44;54.87
3968;BME280;9221;42.646;23.380;2023-04-27T05:48:38;94432.38;;;8.49;54.89
3968;BME280;9221;42.646;23.380;2023-04-27T05:51:04;94420.47;;;8.54;54.87
3968;BME280;9221;42.646;23.380;2023-04-27T05:53:29;94400.03;;;8.48;54.78
3968;BME280;9221;42.646;23.380;2023-04-27T05:55:56;94351.38;;;8.14;55.04
3968;BME280;9221;42.646;23.380;2023-04-27T05:58:23;94447.00;;;8.61;54.95
3968;BME280;9221;42.646;23.380;2023-04-27T06:00:49;94370.19;;;8.20;54.88
3968;BME280;9221;42.646;23.380;2023-04-27T06:03:14;94407.63;;;8.41;55.13
3968;BME280;9221;42.646;23.380;2023-04-27T06:05:40;94422.16;;;8.45;55.22
3968;BME280;9221;42.646;23.380;2023-04-27T06:08:05;94457.84;;;8.48;55.31
3968;BME280;9221;42.646;23.380;2023-04-27T06:10:31;94452.16;;;8.53;55.13
3968;BME280;9221;42.646;23.380;2023-04-27T06:12:56;94461.16;;;8.60;54.97
3968;BME280;9221;42.646;23.380;2023-04-27T06:15:22;94461.09;;;8.79;55.57
3968;BME280;9221;42.646;23.380;2023-04-27T06:17:47;94425.88;;;9.00;54.90
3968;BME280;9221;42.646;23.380;2023-04-27T06:20:12;94442.19;;;9.04;54.70
3968;BME280;9221;42.646;23.380;2023-04-27T06:22:38;94362.56;;;8.84;54.17
3968;BME280;9221;42.646;23.380;2023-04-27T06:25:04;94456.53;;;9.19;53.92
3968;BME280;9221;42.646;23.380;2023-04-27T06:27:30;94418.69;;;9.02;54.06
3968;BME280;9221;42.646;23.380;2023-04-27T06:29:57;94438.72;;;9.03;54.54
3968;BME280;9221;42.646;23.380;2023-04-27T06:32:22;94266.06;;;8.19;54.63
3968;BME280;9221;42.646;23.380;2023-04-27T06:34:48;94411.59;;;9.03;54.15
3968;BME280;9221;42.646;23.380;2023-04-27T06:37:14;94431.34;;;9.17;53.88
3968;BME280;9221;42.646;23.380;2023-04-27T06:39:41;94349.31;;;8.75;54.44
3968;BME280;9221;42.646;23.380;2023-04-27T06:42:07;94428.47;;;9.38;54.58
3968;BME280;9221;42.646;23.380;2023-04-27T06:44:32;94381.16;;;9.28;53.79
3968;BME280;9221;42.646;23.380;2023-04-27T06:46:58;94453.25;;;9.63;53.38
3968;BME280;9221;42.646;23.380;2023-04-27T06:49:23;94355.00;;;9.44;53.20
3968;BME280;9221;42.646;23.380;2023-04-27T06:51:49;94418.69;;;9.94;52.81
3968;BME280;9221;42.646;23.380;2023-04-27T06:54:15;94429.06;;;10.13;52.35
3968;BME280;9221;42.646;23.380;2023-04-27T06:56:40;94405.13;;;9.89;52.86
3968;BME280;9221;42.646;23.380;2023-04-27T06:59:07;94424.47;;;10.33;51.97
3968;BME280;9221;42.646;23.380;2023-04-27T07:01:32;94422.72;;;10.42;51.44
3968;BME280;9221;42.646;23.380;2023-04-27T07:03:58;94443.22;;;10.48;51.52
3968;BME280;9221;42.646;23.380;2023-04-27T07:06:23;94375.50;;;10.31;50.90
3968;BME280;9221;42.646;23.380;2023-04-27T07:08:50;94350.84;;;10.14;50.68
3968;BME280;9221;42.646;23.380;2023-04-27T07:11:15;94413.28;;;10.58;50.63
3968;BME280;9221;42.646;23.380;2023-04-27T07:13:41;94402.38;;;10.53;50.32
3968;BME280;9221;42.646;23.380;2023-04-27T07:16:07;94336.59;;;10.25;50.35
3968;BME280;9221;42.646;23.380;2023-04-27T07:18:33;94339.25;;;10.51;49.82
3968;BME280;9221;42.646;23.380;2023-04-27T07:20:58;94357.44;;;10.62;50.40
3968;BME280;9221;42.646;23.380;2023-04-27T07:23:23;94448.47;;;11.27;49.45
3968;BME280;9221;42.646;23.380;2023-04-27T07:25:49;94383.13;;;11.21;49.19
3968;BME280;9221;42.646;23.380;2023-04-27T07:28:15;94405.28;;;11.37;48.72
3968;BME280;9221;42.646;23.380;2023-04-27T07:30:40;94306.59;;;10.87;48.20
3968;BME280;9221;42.646;23.380;2023-04-27T07:33:07;94334.75;;;11.21;47.36
3968;BME280;9221;42.646;23.380;2023-04-27T07:35:33;94415.03;;;11.95;47.45
3968;BME280;9221;42.646;23.380;2023-04-27T07:37:59;94344.13;;;11.58;46.85
3968;BME280;9221;42.646;23.380;2023-04-27T07:40:26;94436.69;;;12.15;46.26
3968;BME280;9221;42.646;23.380;2023-04-27T07:42:52;94402.69;;;12.21;45.96
3968;BME280;9221;42.646;23.380;2023-04-27T07:45:18;94379.97;;;11.85;47.08
3968;BME280;9221;42.646;23.380;2023-04-27T07:47:44;94429.75;;;12.31;45.78
3968;BME280;9221;42.646;23.380;2023-04-27T07:50:10;94393.56;;;12.31;45.02
3968;BME280;9221;42.646;23.380;2023-04-27T07:52:38;94422.50;;;12.33;44.26
3968;BME280;9221;42.646;23.380;2023-04-27T07:55:04;94363.03;;;12.29;44.34
3968;BME280;9221;42.646;23.380;2023-04-27T07:57:30;94363.03;;;12.29;43.93
3968;BME280;9221;42.646;23.380;2023-04-27T07:59:56;94349.31;;;12.17;43.92
3968;BME280;9221;42.646;23.380;2023-04-27T08:02:21;94345.00;;;12.16;43.69
3968;BME280;9221;42.646;23.380;2023-04-27T08:04:48;94348.94;;;12.28;43.37
3968;BME280;9221;42.646;23.380;2023-04-27T08:07:16;94399.31;;;12.76;43.22
3968;BME280;9221;42.646;23.380;2023-04-27T08:09:42;94340.69;;;12.31;43.25
3968;BME280;9221;42.646;23.380;2023-04-27T08:12:07;94386.28;;;13.23;42.93
3968;BME280;9221;42.646;23.380;2023-04-27T08:14:34;94338.69;;;13.46;41.62
3968;BME280;9221;42.646;23.380;2023-04-27T08:17:00;94426.97;;;14.01;40.35
3968;BME280;9221;42.646;23.380;2023-04-27T08:19:25;94406.22;;;13.81;39.82
3968;BME280;9221;42.646;23.380;2023-04-27T08:21:50;94390.06;;;13.68;40.27
3968;BME280;9221;42.646;23.380;2023-04-27T08:24:16;94391.38;;;13.95;40.18
3968;BME280;9221;42.646;23.380;2023-04-27T08:26:41;94449.84;;;14.02;39.96
3968;BME280;9221;42.646;23.380;2023-04-27T08:29:07;94350.16;;;13.93;39.86
3968;BME280;9221;42.646;23.380;2023-04-27T08:31:32;94334.34;;;13.76;40.05
3968;BME280;9221;42.646;23.380;2023-04-27T08:33:58;94403.41;;;13.83;40.13
3968;BME280;9221;42.646;23.380;2023-04-27T08:36:23;94407.56;;;13.46;41.27
3968;BME280;9221;42.646;23.380;2023-04-27T08:38:52;94397.69;;;13.31;41.18
3968;BME280;9221;42.646;23.380;2023-04-27T08:41:21;94400.75;;;13.51;41.07
3968;BME280;9221;42.646;23.380;2023-04-27T08:43:48;94408.56;;;13.76;41.07
3968;BME280;9221;42.646;23.380;2023-04-27T08:46:23;94427.66;;;13.71;41.30
3968;BME280;9221;42.646;23.380;2023-04-27T08:48:52;94407.22;;;13.80;41.85
3968;BME280;9221;42.646;23.380;2023-04-27T08:51:18;94368.22;;;13.66;41.88
3968;BME280;9221;42.646;23.380;2023-04-27T08:56:13;94211.91;;;12.48;41.57
3968;BME280;9221;42.646;23.380;2023-04-27T08:58:38;94357.84;;;13.16;42.28
3968;BME280;9221;42.646;23.380;2023-04-27T09:01:05;94337.94;;;13.29;41.90
3968;BME280;9221;42.646;23.380;2023-04-27T09:03:32;94430.63;;;13.77;41.69
3968;BME280;9221;42.646;23.380;2023-04-27T09:05:59;94363.25;;;13.31;42.03
3968;BME280;9221;42.646;23.380;2023-04-27T09:08:24;94403.03;;;13.63;41.99
3968;BME280;9221;42.646;23.380;2023-04-27T09:10:51;94294.28;;;12.85;42.58
3968;BME280;9221;42.646;23.380;2023-04-27T09:13:17;94334.41;;;12.97;42.09
3968;BME280;9221;42.646;23.380;2023-04-27T09:15:47;94399.13;;;13.42;41.75
3968;BME280;9221;42.646;23.380;2023-04-27T09:18:20;94338.06;;;12.96;41.86
3968;BME280;9221;42.646;23.380;2023-04-27T09:20:50;94348.59;;;13.12;42.20
3968;BME280;9221;42.646;23.380;2023-04-27T09:23:34;94289.91;;;13.00;41.72
3968;BME280;9221;42.646;23.380;2023-04-27T09:26:01;94280.00;;;13.26;40.79
3968;BME280;9221;42.646;23.380;2023-04-27T09:28:29;94319.88;;;13.87;40.18
3968;BME280;9221;42.646;23.380;2023-04-27T09:31:00;94334.47;;;14.06;40.14
3968;BME280;9221;42.646;23.380;2023-04-27T09:33:31;94324.91;;;14.20;40.36
3968;BME280;9221;42.646;23.380;2023-04-27T09:35:58;94402.16;;;14.40;39.81
3968;BME280;9221;42.646;23.380;2023-04-27T09:38:24;94391.69;;;14.24;40.19
3968;BME280;9221;42.646;23.380;2023-04-27T09:40:50;94369.38;;;13.95;40.35
3968;BME280;9221;42.646;23.380;2023-04-27T09:43:16;94367.19;;;13.98;40.17
3968;BME280;9221;42.646;23.380;2023-04-27T09:45:42;94379.59;;;13.98;40.81
3968;BME280;9221;42.646;23.380;2023-04-27T09:48:09;94336.00;;;13.77;40.91
3968;BME280;9221;42.646;23.380;2023-04-27T09:50:36;94307.84;;;13.76;40.36
3968;BME280;9221;42.646;23.380;2023-04-27T09:53:04;94390.03;;;14.22;40.59
3968;BME280;9221;42.646;23.380;2023-04-27T09:55:35;94311.41;;;13.92;39.97
3968;BME280;9221;42.646;23.380;2023-04-27T09:59:09;94365.84;;;14.79;40.13
3968;BME280;9221;42.646;23.380;2023-04-27T10:01:15;94365.28;;;15.43;38.19
3968;BME280;9221;42.646;23.380;2023-04-27T10:08:59;94283.94;;;14.91;38.61
3968;BME280;9221;42.646;23.380;2023-04-27T10:11:39;94303.81;;;15.46;36.90
3968;BME280;9221;42.646;23.380;2023-04-27T10:14:07;94305.03;;;15.29;36.34
3968;BME280;9221;42.646;23.380;2023-04-27T10:16:55;94312.44;;;15.18;36.43
3968;BME280;9221;42.646;23.380;2023-04-27T10:19:22;94354.88;;;15.12;37.04
3968;BME280;9221;42.646;23.380;2023-04-27T10:22:00;94392.16;;;15.18;37.16
3968;BME280;9221;42.646;23.380;2023-04-27T10:24:39;94283.59;;;14.41;37.86
3968;BME280;9221;42.646;23.380;2023-04-27T10:27:10;94296.72;;;14.42;38.17
3968;BME280;9221;42.646;23.380;2023-04-27T10:29:41;94358.09;;;15.07;37.76
3968;BME280;9221;42.646;23.380;2023-04-27T10:32:08;94394.56;;;15.13;38.17
3968;BME280;9221;42.646;23.380;2023-04-27T10:34:35;94353.50;;;15.82;37.12
3968;BME280;9221;42.646;23.380;2023-04-27T10:37:09;94289.13;;;15.87;35.95
3968;BME280;9221;42.646;23.380;2023-04-27T10:39:41;94351.38;;;15.93;36.04
3968;BME280;9221;42.646;23.380;2023-04-27T10:42:07;94299.56;;;15.15;36.18
3968;BME280;9221;42.646;23.380;2023-04-27T10:44:34;94302.13;;;14.94;36.85
3968;BME280;9221;42.646;23.380;2023-04-27T10:47:01;94283.88;;;15.57;35.49
3968;BME280;9221;42.646;23.380;2023-04-27T10:49:36;94303.06;;;16.39;33.88
3968;BME280;9221;42.646;23.380;2023-04-27T10:52:02;94308.41;;;16.46;33.82
3968;BME280;9221;42.646;23.380;2023-04-27T10:54:29;94292.84;;;15.93;34.43
3968;BME280;9221;42.646;23.380;2023-04-27T10:57:09;94279.91;;;15.68;34.86
3968;BME280;9221;42.646;23.380;2023-04-27T10:59:54;94241.38;;;15.20;35.32
3968;BME280;9221;42.646;23.380;2023-04-27T11:02:27;94348.97;;;15.46;35.33
3968;BME280;9221;42.646;23.380;2023-04-27T11:04:54;94310.75;;;15.11;35.85
3968;BME280;9221;42.646;23.380;2023-04-27T11:07:24;94339.56;;;15.29;35.43
3968;BME280;9221;42.646;23.380;2023-04-27T11:09:50;94284.56;;;15.66;35.12
3968;BME280;9221;42.646;23.380;2023-04-27T11:12:16;94337.59;;;16.32;34.45
3968;BME280;9221;42.646;23.380;2023-04-27T11:14:41;94212.19;;;15.42;34.27
3968;BME280;9221;42.646;23.380;2023-04-27T11:17:06;94309.69;;;15.63;34.69
3968;BME280;9221;42.646;23.380;2023-04-27T11:19:43;94264.28;;;15.21;34.90
3968;BME280;9221;42.646;23.380;2023-04-27T11:22:10;94215.84;;;14.68;35.13
3968;BME280;9221;42.646;23.380;2023-04-27T11:24:35;94283.38;;;14.80;35.69
3968;BME280;9221;42.646;23.380;2023-04-27T11:27:01;94331.16;;;15.10;35.51
3968;BME280;9221;42.646;23.380;2023-04-27T11:29:36;94348.94;;;14.95;35.47
3968;BME280;9221;42.646;23.380;2023-04-27T11:32:03;94314.94;;;14.60;35.90
3968;BME280;9221;42.646;23.380;2023-04-27T11:34:28;94360.31;;;14.50;36.29
3968;BME280;9221;42.646;23.380;2023-04-27T11:37:03;94343.47;;;14.58;36.89
3968;BME280;9221;42.646;23.380;2023-04-27T11:39:36;94316.81;;;14.51;36.78
3968;BME280;9221;42.646;23.380;2023-04-27T11:42:24;94339.09;;;14.50;37.43
3968;BME280;9221;42.646;23.380;2023-04-27T11:47:18;94335.38;;;14.89;37.04
3968;BME280;9221;42.646;23.380;2023-04-27T11:49:47;94354.69;;;15.65;36.03
3968;BME280;9221;42.646;23.380;2023-04-27T11:52:12;94347.88;;;15.92;35.11
3968;BME280;9221;42.646;23.380;2023-04-27T11:54:38;94336.53;;;15.83;35.35
3968;BME280;9221;42.646;23.380;2023-04-27T11:57:04;94301.53;;;15.65;35.41
3968;BME280;9221;42.646;23.380;2023-04-27T11:59:30;94345.66;;;15.44;35.69
3968;BME280;9221;42.646;23.380;2023-04-27T12:01:55;94304.88;;;14.85;35.77
3968;BME280;9221;42.646;23.380;2023-04-27T12:04:21;94313.59;;;14.79;36.47
3968;BME280;9221;42.646;23.380;2023-04-27T12:06:46;94361.03;;;15.12;36.24
3968;BME280;9221;42.646;23.380;2023-04-27T12:09:12;94360.66;;;15.15;35.67
3968;BME280;9221;42.646;23.380;2023-04-27T12:11:37;94373.72;;;14.72;36.22
3968;BME280;9221;42.646;23.380;2023-04-27T12:14:03;94279.78;;;14.05;36.82
3968;BME280;9221;42.646;23.380;2023-04-27T12:16:28;94387.41;;;14.61;36.66
3968;BME280;9221;42.646;23.380;2023-04-27T12:18:54;94361.38;;;14.64;36.79
3968;BME280;9221;42.646;23.380;2023-04-27T12:21:19;94299.56;;;14.17;36.69
3968;BME280;9221;42.646;23.380;2023-04-27T12:23:45;94307.00;;;14.22;37.23
3968;BME280;9221;42.646;23.380;2023-04-27T12:26:11;94293.78;;;13.99;36.74
3968;BME280;9221;42.646;23.380;2023-04-27T12:28:36;94389.03;;;14.24;37.26
3968;BME280;9221;42.646;23.380;2023-04-27T12:31:03;94369.97;;;14.43;37.44
3968;BME280;9221;42.646;23.380;2023-04-27T12:33:28;94369.44;;;14.48;37.44
3968;BME280;9221;42.646;23.380;2023-04-27T12:35:54;94413.25;;;14.44;36.65
3968;BME280;9221;42.646;23.380;2023-04-27T12:38:19;94343.50;;;14.35;36.97
3968;BME280;9221;42.646;23.380;2023-04-27T12:40:46;94348.63;;;14.21;37.09
3968;BME280;9221;42.646;23.380;2023-04-27T12:43:12;94306.09;;;13.92;37.13
3968;BME280;9221;42.646;23.380;2023-04-27T12:45:37;94348.00;;;14.34;37.41
3968;BME280;9221;42.646;23.380;2023-04-27T12:48:02;94308.75;;;13.92;37.45
3968;BME280;9221;42.646;23.380;2023-04-27T12:50:29;94355.22;;;14.26;37.24
3968;BME280;9221;42.646;23.380;2023-04-27T12:52:55;94377.00;;;14.36;37.31
3968;BME280;9221;42.646;23.380;2023-04-27T12:55:20;94375.34;;;14.35;37.60
3968;BME280;9221;42.646;23.380;2023-04-27T12:57:45;94311.66;;;13.97;38.05
3968;BME280;9221;42.646;23.380;2023-04-27T13:00:11;94318.78;;;14.19;37.35
3968;BME280;9221;42.646;23.380;2023-04-27T13:02:37;94211.88;;;13.66;37.55
3968;BME280;9221;42.646;23.380;2023-04-27T13:05:03;94346.66;;;14.53;37.30
3968;BME280;9221;42.646;23.380;2023-04-27T13:07:30;94427.47;;;14.74;36.97
3968;BME280;9221;42.646;23.380;2023-04-27T13:09:55;94352.75;;;14.77;37.29
3968;BME280;9221;42.646;23.380;2023-04-27T13:12:21;94386.91;;;14.80;36.36
3968;BME280;9221;42.646;23.380;2023-04-27T13:14:46;94394.59;;;14.75;36.92
3968;BME280;9221;42.646;23.380;2023-04-27T13:17:12;94422.63;;;14.78;37.31
3968;BME280;9221;42.646;23.380;2023-04-27T13:19:37;94303.47;;;14.60;36.91
3968;BME280;9221;42.646;23.380;2023-04-27T13:22:02;94355.03;;;15.25;36.21
3968;BME280;9221;42.646;23.380;2023-04-27T13:24:29;94333.56;;;15.05;35.80